Nulato, Alaska
Current Conditions -  °F | °C
As of 6:53 PM on Friday 19 Dec 2014 (Local Time) from PAKV Reporting Station
Clear Clear  
Wind Chill: -9°   Ceiling: Unl
Heat Index: -9°   Visibility: 10mi
Dew Point: -14°   Wind: 3mph
Humidity: 79%   Direction: 230°SW
Pressure: 29.34"   Gusts: NA
Location:  64.72°N, 158.13°W
Report Text: PAKV 200353Z AUTO 23003KT 10SM CLR M23/M26 A2934 RMK AO1 SLP942 T12281256 FZRANO TSNO
Loading
Personal Weather Stations






























Interactive Weather Map New forecast layout! Learn more

10-Day Weather Forecast

Advertisements
Track Severe Weather on mobile